Airfield :
LOGIN :

Register | Disclaimer

   EN    FR    IT 

 










Legend :    VFR   Marginal VFR   IFR   Intensive IFR   Very Intensive IFR
Visi :
Ceiling :
>= 8 km
>= 3000ft
5 to 8 km
1000 to 3000 ft
1500m to 5 km
500 to 1000 ft
800 to 1500m
200 to 500 ft
< 800m
< 200 ft
Symbols :   Thunderstorms  Fog  Heavy snow  Heavy precipitations  Wind > 20 kt
SIGMETs :     Misc.  Thunderstorms  Icing  Turbulence  Mountain Waves  Volcanic Ashes






- Airport Elevation : 56 ft
- IATA code : ILY


EGPI - Islay

CURRENT METAR :
  • 092120Z 19012KT 150V220 9999 SCT021 07/05 Q1015

EXPIRED METARs :
  • 092050Z 19012KT 9999 SCT026 BKN046 07/05 Q1015
  • 092020Z 19011KT 160V220 9999 BKN027 08/05 Q1015
  • 091950Z 19011KT 150V230 9999 FEW024 BKN028 08/06 Q1016
  • 091920Z 19010KT 160V220 9999 FEW018 BKN023 08/05 Q1016
  • 091850Z 20011KT 160V240 9999 BKN023 BKN032 08/05 Q1016

Expired Forecast.



MET'MAP, your aeronautical weather chart ! - Copyright ORBIFLY December 2007 - Disclaimer

ORBIFLY MET'MAP TEAM :

Programming & Development : Alexandra Zaïnal
Concept & original design : Baudouin d'Aumeries
Assistance for programming : Marc-Olivier Méhu
Technical & hardware support : Manuel Goepfert

Contact : metmap@orbifly.com




SOURCES & CREDITS :

   NOAA